Farris, Minnesota
Current Conditions -  °F | °C
As of 4:15 PM on Thursday 23 Oct 2014 (Local Time) from KY49 Reporting Station
Clear Clear  
Wind Chill: 66°   Ceiling: Unl
Heat Index: 66°   Visibility: 10mi
Dew Point: 38°   Wind: 10mph
Humidity: 36%   Direction: 220°SW
Pressure: 29.88"   Gusts: 16mph
Location:  47.3012°N, 94.5426°W
Report Text: KY49 232115Z AUTO 22009G14KT 10SM CLR 19/03 A2988 RMK AO2 T01890033
Loading
Personal Weather Stations






























Interactive Weather Map
Tropical Storm Tracking
New forecast layout! Learn more

10-Day Weather Forecast

Advertisements
Track Severe Weather on mobile